Map

Track Data

SID SEASON NUMBER BASIN SUBBASIN NAME ISO_TIME NATURE LAT LON WMO_WIND WMO_PRES WMO_AGENCY TRACK_TYPE DIST2LAND LANDFALL IFLAG USA_AGENCY USA_ATCF_ID USA_LAT USA_LON USA_RECORD USA_STATUS USA_WIND USA_PRES USA_SSHS USA_R34_NE USA_R34_SE USA_R34_SW USA_R34_NW USA_R50_NE USA_R50_SE USA_R50_SW USA_R50_NW USA_R64_NE USA_R64_SE USA_R64_SW USA_R64_NW USA_POCI USA_ROCI USA_RMW USA_EYE TOKYO_LAT TOKYO_LON TOKYO_GRADE TOKYO_WIND TOKYO_PRES TOKYO_R50_DIR TOKYO_R50_LONG TOKYO_R50_SHORT TOKYO_R30_DIR TOKYO_R30_LONG TOKYO_R30_SHORT TOKYO_LAND CMA_LAT CMA_LON CMA_CAT CMA_WIND CMA_PRES HKO_LAT HKO_LON HKO_CAT HKO_WIND HKO_PRES NEWDELHI_LAT NEWDELHI_LON NEWDELHI_GRADE NEWDELHI_WIND NEWDELHI_PRES NEWDELHI_CI NEWDELHI_DP NEWDELHI_POCI REUNION_LAT REUNION_LON REUNION_TYPE REUNION_WIND REUNION_PRES REUNION_TNUM REUNION_CI REUNION_RMW REUNION_R34_NE REUNION_R34_SE REUNION_R34_SW REUNION_R34_NW REUNION_R50_NE REUNION_R50_SE REUNION_R50_SW REUNION_R50_NW REUNION_R64_NE REUNION_R64_SE REUNION_R64_SW REUNION_R64_NW BOM_LAT BOM_LON BOM_TYPE BOM_WIND BOM_PRES BOM_TNUM BOM_CI BOM_RMW BOM_R34_NE BOM_R34_SE BOM_R34_SW BOM_R34_NW BOM_R50_NE BOM_R50_SE BOM_R50_SW BOM_R50_NW BOM_R64_NE BOM_R64_SE BOM_R64_SW BOM_R64_NW BOM_ROCI BOM_POCI BOM_EYE BOM_POS_METHOD BOM_PRES_METHOD NADI_LAT NADI_LON NADI_CAT NADI_WIND NADI_PRES WELLINGTON_LAT WELLINGTON_LON WELLINGTON_WIND WELLINGTON_PRES DS824_LAT DS824_LON DS824_STAGE DS824_WIND DS824_PRES TD9636_LAT TD9636_LON TD9636_STAGE TD9636_WIND TD9636_PRES TD9635_LAT TD9635_LON TD9635_WIND TD9635_PRES TD9635_ROCI NEUMANN_LAT NEUMANN_LON NEUMANN_CLASS NEUMANN_WIND NEUMANN_PRES MLC_LAT MLC_LON MLC_CLASS MLC_WIND MLC_PRES USA_GUST BOM_GUST BOM_GUST_PER REUNION_GUST REUNION_GUST_PER USA_SEAHGT USA_SEARAD_NE USA_SEARAD_SE USA_SEARAD_SW USA_SEARAD_NW STORM_SPEED STORM_DIR
1983274N15119 1983 64 WP MM NOT_NAMED 1983-09-30 18:00:00 TS 14.5000 118.500 main 175 175 __O___________ -1 14.5000 118.500 0 19 1005 13 273
1983274N15119 1983 64 WP MM NOT_NAMED 1983-09-30 21:00:00 TS 14.5379 117.837 main 247 247 __P___________ -1 14.5379 117.837 0 21 1004 13 275
1983274N15119 1983 64 WP MM NOT_NAMED 1983-10-01 00:00:00 TS 14.6000 117.200 main 303 303 __O___________ -1 14.6000 117.200 1 23 1004 12 278
1983274N15119 1983 64 WP MM NOT_NAMED 1983-10-01 03:00:00 TS 14.6997 116.600 main 362 362 __P___________ -1 14.6997 116.600 1 26 1003 12 280
1983274N15119 1983 64 WP MM NOT_NAMED 1983-10-01 06:00:00 TS 14.8000 116.000 main 418 418 __O___________ -1 14.8000 116.000 1 29 1002 12 277
1983274N15119 1983 64 WP MM NOT_NAMED 1983-10-01 09:00:00 TS 14.8574 115.350 main 487 487 __P___________ -1 14.8574 115.350 1 29 1002 14 273
1983274N15119 1983 64 WP MM NOT_NAMED 1983-10-01 12:00:00 TS 14.8800 114.560 main 560 508 __OO__________ -1 14.9000 114.700 1 29 1002 14.8000 114.000 TD 25 1001 15 272
1983274N15119 1983 64 WP MM NOT_NAMED 1983-10-01 15:00:00 TS 14.9133 113.849 main 497 437 __PP__________ -1 14.9347 114.100 1 29 1002 14.8703 113.347 TD 25 1001 14 275
1983274N15119 1983 64 WP MM NOT_NAMED 1983-10-01 18:00:00 TS 15.0000 113.157 main 437 369 __OO__________ -1 15.0000 113.500 1 29 1002 15.0000 112.700 TD 25 1001 14 281
1983274N15119 1983 64 WP MM NOT_NAMED 1983-10-01 21:00:00 TS 15.1737 112.460 main 369 310 __PP__________ -1 15.1199 112.850 1 29 1001 15.2274 112.070 TD 27 1000 13 288
1983274N15119 1983 64 WP MM NOT_NAMED 1983-10-02 00:00:00 TS 15.4000 111.850 main 310 256 __OO__________ -1 15.3000 112.200 1 29 1000 15.5000 111.500 TD 30 1000 12 293
1983274N15119 1983 64 WP MM NOT_NAMED 1983-10-02 03:00:00 TS 15.6499 111.288 main 256 218 __PP__________ -1 15.5500 111.563 1 29 999 15.7498 111.012 TD 30 999 11 296
1983274N15119 1983 64 WP MM NOT_NAMED 1983-10-02 06:00:00 TS 15.9000 110.800 main 218 189 __OO__________ -1 15.8000 111.000 1 29 998 16.0000 110.600 TD 30 999 10 298
1983274N15119 1983 64 WP MM NOT_NAMED 1983-10-02 09:00:00 TS 16.1036 110.399 main 189 170 __PP__________ -1 15.9497 110.570 1 29 998 16.2574 110.227 TD 30 998 8 299
1983274N15119 1983 64 WP MM NOT_NAMED 1983-10-02 12:00:00 TS 16.3000 110.050 main 177 159 __OO__________ -1 16.1000 110.200 1 29 998 16.5000 109.900 TD 30 998 8 301
1983274N15119 1983 64 WP MM NOT_NAMED 1983-10-02 15:00:00 TS 16.5024 109.696 main 159 141 __PP__________ -1 16.3200 109.785 1 29 998 16.6849 109.607 TD 30 998 8 304
1983274N15119 1983 64 WP MM NOT_NAMED 1983-10-02 18:00:00 TS 16.7500 109.350 main 147 131 __OO__________ -1 16.6000 109.400 1 29 998 16.9000 109.300 TD 30 998 8 311
1983274N15119 1983 64 WP MM NOT_NAMED 1983-10-02 21:00:00 TS 17.0585 109.030 main 134 116 __PP__________ -1 16.9046 109.129 1 29 998 17.2124 108.930 TD 30 997 10 316
1983274N15119 1983 64 WP MM NOT_NAMED 1983-10-03 00:00:00 TS 17.4500 108.650 main 105 85 __OO__________ -1 17.3000 108.800 1 29 998 17.6000 108.500 TD 30 997 12 316
1983274N15119 1983 64 WP MM NOT_NAMED 1983-10-03 03:00:00 TS 17.9539 108.123 main 84 84 __PP__________ -1 17.8577 108.246 1 29 998 18.0501 108.000 TD 30 997 14 314
1983274N15119 1983 64 WP MM NOT_NAMED 1983-10-03 06:00:00 TS 18.4429 107.557 main 116 107 __OO__________ -1 18.4000 107.600 1 29 998 18.5000 107.500 TD 30 997 13 310
1983274N15119 1983 64 WP MM NOT_NAMED 1983-10-03 09:00:00 TS 18.8027 107.065 main 107 80 __PP__________ -1 18.7666 107.060 1 29 998 18.8750 107.075 TD 30 997 12 301
1983274N15119 1983 64 WP MM NOT_NAMED 1983-10-03 12:00:00 TS 19.0500 106.475 main 76 0 __OO__________ -1 19.0000 106.400 1 29 998 19.2000 106.700 TD 30 998 15 282
1983274N15119 1983 64 WP MM NOT_NAMED 1983-10-03 15:00:00 TS 19.1294 105.480 main 0 0 __P___________ -1 19.1294 105.480 1 24 999 TD 20 274
1983274N15119 1983 64 WP MM NOT_NAMED 1983-10-03 18:00:00 TS 19.2000 104.400 main 0 __O___________ -1 19.2000 104.400 0 19 1000 20 274

Digital Typhoon Data and Search

About IBTrACS Database

This database is a web-friendly format of International Best Track Archive for Climate Stewardship (IBTrACS), a global best track data archive curated by NOAA dating back to 1842.

Updated: 2021-10-08